sensor_id;sensor_type;location;lat;lon;timestamp;P1;durP1;ratioP1;P2;durP2;ratioP2
23782;SDS011;12071;50.850;4.446;2024-03-08T00:02:13;31.17;;;17.70;;
23782;SDS011;12071;50.850;4.446;2024-03-08T00:04:39;30.55;;;16.50;;
23782;SDS011;12071;50.850;4.446;2024-03-08T00:07:05;35.78;;;17.73;;
23782;SDS011;12071;50.850;4.446;2024-03-08T00:09:32;30.30;;;17.08;;
23782;SDS011;12071;50.850;4.446;2024-03-08T00:11:57;28.88;;;16.45;;
23782;SDS011;12071;50.850;4.446;2024-03-08T00:14:23;35.33;;;18.25;;
23782;SDS011;12071;50.850;4.446;2024-03-08T00:16:49;33.97;;;17.35;;
23782;SDS011;12071;50.850;4.446;2024-03-08T00:19:15;29.02;;;16.58;;
23782;SDS011;12071;50.850;4.446;2024-03-08T00:21:40;30.10;;;17.48;;
23782;SDS011;12071;50.850;4.446;2024-03-08T00:24:07;33.25;;;16.98;;
23782;SDS011;12071;50.850;4.446;2024-03-08T00:26:33;28.30;;;16.70;;
23782;SDS011;12071;50.850;4.446;2024-03-08T00:28:58;30.05;;;17.80;;
23782;SDS011;12071;50.850;4.446;2024-03-08T00:31:24;32.70;;;16.88;;
23782;SDS011;12071;50.850;4.446;2024-03-08T00:33:50;30.63;;;16.77;;
23782;SDS011;12071;50.850;4.446;2024-03-08T00:36:17;29.02;;;17.48;;
23782;SDS011;12071;50.850;4.446;2024-03-08T00:38:43;32.20;;;18.27;;
23782;SDS011;12071;50.850;4.446;2024-03-08T00:41:09;29.42;;;17.20;;
23782;SDS011;12071;50.850;4.446;2024-03-08T00:43:34;33.17;;;17.42;;
23782;SDS011;12071;50.850;4.446;2024-03-08T00:46:00;33.22;;;17.73;;
23782;SDS011;12071;50.850;4.446;2024-03-08T00:48:26;32.97;;;18.77;;
23782;SDS011;12071;50.850;4.446;2024-03-08T00:50:52;32.30;;;19.05;;
23782;SDS011;12071;50.850;4.446;2024-03-08T00:53:18;33.60;;;17.52;;
23782;SDS011;12071;50.850;4.446;2024-03-08T00:55:44;33.67;;;17.85;;
23782;SDS011;12071;50.850;4.446;2024-03-08T00:58:11;31.35;;;17.55;;
23782;SDS011;12071;50.850;4.446;2024-03-08T01:00:37;30.25;;;17.38;;
23782;SDS011;12071;50.850;4.446;2024-03-08T01:03:06;29.73;;;17.02;;
23782;SDS011;12071;50.850;4.446;2024-03-08T01:05:32;30.73;;;18.05;;
23782;SDS011;12071;50.850;4.446;2024-03-08T01:07:58;31.45;;;17.63;;
23782;SDS011;12071;50.850;4.446;2024-03-08T01:10:24;33.65;;;17.90;;
23782;SDS011;12071;50.850;4.446;2024-03-08T01:12:50;34.50;;;18.95;;
23782;SDS011;12071;50.850;4.446;2024-03-08T01:15:16;28.85;;;18.13;;
23782;SDS011;12071;50.850;4.446;2024-03-08T01:17:41;36.42;;;19.80;;
23782;SDS011;12071;50.850;4.446;2024-03-08T01:20:09;30.98;;;18.83;;
23782;SDS011;12071;50.850;4.446;2024-03-08T01:22:37;31.88;;;18.73;;
23782;SDS011;12071;50.850;4.446;2024-03-08T01:25:04;30.75;;;18.10;;
23782;SDS011;12071;50.850;4.446;2024-03-08T01:27:30;32.58;;;18.88;;
23782;SDS011;12071;50.850;4.446;2024-03-08T01:29:56;31.73;;;18.48;;
23782;SDS011;12071;50.850;4.446;2024-03-08T01:32:24;33.95;;;19.35;;
23782;SDS011;12071;50.850;4.446;2024-03-08T01:34:50;29.33;;;17.98;;
23782;SDS011;12071;50.850;4.446;2024-03-08T01:37:16;30.50;;;18.52;;
23782;SDS011;12071;50.850;4.446;2024-03-08T01:39:42;33.03;;;19.58;;
23782;SDS011;12071;50.850;4.446;2024-03-08T01:42:08;38.78;;;20.25;;
23782;SDS011;12071;50.850;4.446;2024-03-08T01:44:34;32.45;;;18.85;;
23782;SDS011;12071;50.850;4.446;2024-03-08T01:46:59;32.63;;;19.33;;
23782;SDS011;12071;50.850;4.446;2024-03-08T01:49:26;32.28;;;18.75;;
23782;SDS011;12071;50.850;4.446;2024-03-08T01:51:53;32.47;;;19.70;;
23782;SDS011;12071;50.850;4.446;2024-03-08T01:54:21;32.72;;;20.15;;
23782;SDS011;12071;50.850;4.446;2024-03-08T01:56:48;32.78;;;20.58;;
23782;SDS011;12071;50.850;4.446;2024-03-08T01:59:14;38.20;;;21.10;;
23782;SDS011;12071;50.850;4.446;2024-03-08T02:01:41;35.20;;;20.73;;
23782;SDS011;12071;50.850;4.446;2024-03-08T02:04:07;35.40;;;20.88;;
23782;SDS011;12071;50.850;4.446;2024-03-08T02:06:33;35.20;;;21.02;;
23782;SDS011;12071;50.850;4.446;2024-03-08T02:08:59;32.38;;;20.75;;
23782;SDS011;12071;50.850;4.446;2024-03-08T02:11:26;32.42;;;20.35;;
23782;SDS011;12071;50.850;4.446;2024-03-08T02:13:52;34.10;;;21.02;;
23782;SDS011;12071;50.850;4.446;2024-03-08T02:16:20;33.55;;;20.27;;
23782;SDS011;12071;50.850;4.446;2024-03-08T02:18:47;33.78;;;21.10;;
23782;SDS011;12071;50.850;4.446;2024-03-08T02:21:13;39.58;;;22.60;;
23782;SDS011;12071;50.850;4.446;2024-03-08T02:23:43;33.85;;;21.85;;
23782;SDS011;12071;50.850;4.446;2024-03-08T02:26:09;34.50;;;21.35;;
23782;SDS011;12071;50.850;4.446;2024-03-08T02:28:35;31.55;;;21.27;;
23782;SDS011;12071;50.850;4.446;2024-03-08T02:31:01;33.92;;;21.52;;
23782;SDS011;12071;50.850;4.446;2024-03-08T02:33:27;35.55;;;22.85;;
23782;SDS011;12071;50.850;4.446;2024-03-08T02:35:54;32.05;;;21.80;;
23782;SDS011;12071;50.850;4.446;2024-03-08T02:38:21;36.95;;;21.80;;
23782;SDS011;12071;50.850;4.446;2024-03-08T02:40:49;35.17;;;22.77;;
23782;SDS011;12071;50.850;4.446;2024-03-08T02:43:16;33.95;;;22.90;;
23782;SDS011;12071;50.850;4.446;2024-03-08T02:45:43;36.42;;;23.08;;
23782;SDS011;12071;50.850;4.446;2024-03-08T02:48:10;39.25;;;23.38;;
23782;SDS011;12071;50.850;4.446;2024-03-08T02:50:36;35.33;;;23.52;;
23782;SDS011;12071;50.850;4.446;2024-03-08T02:53:02;38.42;;;23.48;;
23782;SDS011;12071;50.850;4.446;2024-03-08T02:55:28;36.22;;;22.55;;
23782;SDS011;12071;50.850;4.446;2024-03-08T02:57:55;35.50;;;22.85;;
23782;SDS011;12071;50.850;4.446;2024-03-08T03:00:21;35.22;;;23.20;;
23782;SDS011;12071;50.850;4.446;2024-03-08T03:02:50;35.78;;;23.70;;
23782;SDS011;12071;50.850;4.446;2024-03-08T03:05:22;35.03;;;23.77;;
23782;SDS011;12071;50.850;4.446;2024-03-08T03:07:48;36.63;;;25.15;;
23782;SDS011;12071;50.850;4.446;2024-03-08T03:10:16;35.35;;;22.95;;
23782;SDS011;12071;50.850;4.446;2024-03-08T03:12:43;36.28;;;23.55;;
23782;SDS011;12071;50.850;4.446;2024-03-08T03:15:12;37.88;;;24.15;;
23782;SDS011;12071;50.850;4.446;2024-03-08T03:17:39;36.25;;;24.77;;
23782;SDS011;12071;50.850;4.446;2024-03-08T03:20:08;40.15;;;24.77;;
23782;SDS011;12071;50.850;4.446;2024-03-08T03:22:38;39.33;;;24.33;;
23782;SDS011;12071;50.850;4.446;2024-03-08T03:25:03;36.80;;;24.08;;
23782;SDS011;12071;50.850;4.446;2024-03-08T03:27:31;40.83;;;25.40;;
23782;SDS011;12071;50.850;4.446;2024-03-08T03:29:57;38.38;;;25.45;;
23782;SDS011;12071;50.850;4.446;2024-03-08T03:32:23;38.33;;;25.02;;
23782;SDS011;12071;50.850;4.446;2024-03-08T03:34:49;37.10;;;24.95;;
23782;SDS011;12071;50.850;4.446;2024-03-08T03:37:21;36.90;;;24.27;;
23782;SDS011;12071;50.850;4.446;2024-03-08T03:39:46;39.42;;;25.52;;
23782;SDS011;12071;50.850;4.446;2024-03-08T03:42:17;36.17;;;23.97;;
23782;SDS011;12071;50.850;4.446;2024-03-08T03:44:47;38.25;;;24.92;;
23782;SDS011;12071;50.850;4.446;2024-03-08T03:47:13;41.05;;;26.40;;
23782;SDS011;12071;50.850;4.446;2024-03-08T03:49:40;38.22;;;25.73;;
23782;SDS011;12071;50.850;4.446;2024-03-08T03:52:07;38.47;;;25.33;;
23782;SDS011;12071;50.850;4.446;2024-03-08T03:54:33;42.15;;;25.70;;
23782;SDS011;12071;50.850;4.446;2024-03-08T03:56:59;38.42;;;24.75;;
23782;SDS011;12071;50.850;4.446;2024-03-08T03:59:25;38.42;;;25.67;;
23782;SDS011;12071;50.850;4.446;2024-03-08T04:01:54;41.70;;;27.02;;
23782;SDS011;12071;50.850;4.446;2024-03-08T04:04:20;35.20;;;24.35;;
23782;SDS011;12071;50.850;4.446;2024-03-08T04:06:46;39.30;;;25.70;;
23782;SDS011;12071;50.850;4.446;2024-03-08T04:09:12;38.42;;;25.27;;
23782;SDS011;12071;50.850;4.446;2024-03-08T04:11:39;37.03;;;24.67;;
23782;SDS011;12071;50.850;4.446;2024-03-08T04:14:04;37.95;;;25.75;;
23782;SDS011;12071;50.850;4.446;2024-03-08T04:16:30;37.72;;;25.60;;
23782;SDS011;12071;50.850;4.446;2024-03-08T04:18:57;38.97;;;25.70;;
23782;SDS011;12071;50.850;4.446;2024-03-08T04:21:23;36.13;;;26.40;;
23782;SDS011;12071;50.850;4.446;2024-03-08T04:23:48;39.90;;;25.90;;
23782;SDS011;12071;50.850;4.446;2024-03-08T04:26:14;39.08;;;25.70;;
23782;SDS011;12071;50.850;4.446;2024-03-08T04:28:40;40.95;;;26.40;;
23782;SDS011;12071;50.850;4.446;2024-03-08T04:31:06;36.38;;;24.13;;
23782;SDS011;12071;50.850;4.446;2024-03-08T04:33:32;37.33;;;25.30;;
23782;SDS011;12071;50.850;4.446;2024-03-08T04:36:00;42.13;;;26.23;;
23782;SDS011;12071;50.850;4.446;2024-03-08T04:38:29;38.88;;;25.55;;
23782;SDS011;12071;50.850;4.446;2024-03-08T04:40:56;41.75;;;26.48;;
23782;SDS011;12071;50.850;4.446;2024-03-08T04:43:22;37.08;;;23.98;;
23782;SDS011;12071;50.850;4.446;2024-03-08T04:45:51;40.03;;;25.33;;
23782;SDS011;12071;50.850;4.446;2024-03-08T04:48:18;36.47;;;24.90;;
23782;SDS011;12071;50.850;4.446;2024-03-08T04:50:45;40.65;;;25.15;;
23782;SDS011;12071;50.850;4.446;2024-03-08T04:53:11;39.33;;;25.58;;
23782;SDS011;12071;50.850;4.446;2024-03-08T04:55:37;41.65;;;25.98;;
23782;SDS011;12071;50.850;4.446;2024-03-08T04:58:03;35.97;;;23.40;;
23782;SDS011;12071;50.850;4.446;2024-03-08T05:00:31;40.22;;;25.48;;
23782;SDS011;12071;50.850;4.446;2024-03-08T05:02:57;38.33;;;25.58;;
23782;SDS011;12071;50.850;4.446;2024-03-08T05:05:23;36.78;;;24.58;;
23782;SDS011;12071;50.850;4.446;2024-03-08T05:07:50;39.88;;;26.58;;
23782;SDS011;12071;50.850;4.446;2024-03-08T05:10:16;39.85;;;26.23;;
23782;SDS011;12071;50.850;4.446;2024-03-08T05:12:45;37.55;;;25.13;;
23782;SDS011;12071;50.850;4.446;2024-03-08T05:15:11;40.70;;;25.55;;
23782;SDS011;12071;50.850;4.446;2024-03-08T05:17:38;41.92;;;26.33;;
23782;SDS011;12071;50.850;4.446;2024-03-08T05:20:05;40.78;;;26.48;;
23782;SDS011;12071;50.850;4.446;2024-03-08T05:22:33;39.30;;;24.17;;
23782;SDS011;12071;50.850;4.446;2024-03-08T05:24:59;40.67;;;25.08;;
23782;SDS011;12071;50.850;4.446;2024-03-08T05:27:25;39.30;;;25.70;;
23782;SDS011;12071;50.850;4.446;2024-03-08T05:29:50;40.42;;;25.13;;
23782;SDS011;12071;50.850;4.446;2024-03-08T05:32:16;37.55;;;25.05;;
23782;SDS011;12071;50.850;4.446;2024-03-08T05:34:42;42.25;;;26.02;;
23782;SDS011;12071;50.850;4.446;2024-03-08T05:37:10;38.97;;;24.08;;
23782;SDS011;12071;50.850;4.446;2024-03-08T05:39:36;39.35;;;25.05;;
23782;SDS011;12071;50.850;4.446;2024-03-08T05:42:02;38.00;;;24.60;;
23782;SDS011;12071;50.850;4.446;2024-03-08T05:44:27;39.08;;;25.05;;
23782;SDS011;12071;50.850;4.446;2024-03-08T05:46:56;37.17;;;24.88;;
23782;SDS011;12071;50.850;4.446;2024-03-08T05:49:22;39.08;;;25.38;;
23782;SDS011;12071;50.850;4.446;2024-03-08T05:51:50;38.63;;;25.25;;
23782;SDS011;12071;50.850;4.446;2024-03-08T05:54:16;37.75;;;25.75;;
23782;SDS011;12071;50.850;4.446;2024-03-08T05:56:42;42.47;;;26.42;;
23782;SDS011;12071;50.850;4.446;2024-03-08T05:59:09;42.50;;;26.55;;
23782;SDS011;12071;50.850;4.446;2024-03-08T06:01:35;41.60;;;25.58;;
23782;SDS011;12071;50.850;4.446;2024-03-08T06:04:03;41.55;;;25.90;;
23782;SDS011;12071;50.850;4.446;2024-03-08T06:06:29;39.63;;;25.35;;
23782;SDS011;12071;50.850;4.446;2024-03-08T06:08:55;40.25;;;25.30;;
23782;SDS011;12071;50.850;4.446;2024-03-08T06:11:24;40.05;;;25.15;;
23782;SDS011;12071;50.850;4.446;2024-03-08T06:13:52;40.58;;;24.88;;
23782;SDS011;12071;50.850;4.446;2024-03-08T06:16:24;41.20;;;25.30;;
23782;SDS011;12071;50.850;4.446;2024-03-08T06:18:54;40.17;;;24.05;;
23782;SDS011;12071;50.850;4.446;2024-03-08T06:21:20;37.22;;;25.15;;
23782;SDS011;12071;50.850;4.446;2024-03-08T06:23:47;37.95;;;24.13;;
23782;SDS011;12071;50.850;4.446;2024-03-08T06:26:13;37.13;;;25.13;;
23782;SDS011;12071;50.850;4.446;2024-03-08T06:28:40;41.40;;;26.40;;
23782;SDS011;12071;50.850;4.446;2024-03-08T06:31:05;40.92;;;25.55;;
23782;SDS011;12071;50.850;4.446;2024-03-08T06:33:32;38.50;;;24.50;;
23782;SDS011;12071;50.850;4.446;2024-03-08T06:35:57;41.05;;;25.33;;
23782;SDS011;12071;50.850;4.446;2024-03-08T06:38:23;41.35;;;26.17;;
23782;SDS011;12071;50.850;4.446;2024-03-08T06:40:50;40.08;;;24.67;;
23782;SDS011;12071;50.850;4.446;2024-03-08T06:43:16;40.97;;;25.10;;
23782;SDS011;12071;50.850;4.446;2024-03-08T06:45:43;42.42;;;25.17;;
23782;SDS011;12071;50.850;4.446;2024-03-08T06:48:18;40.58;;;24.42;;
23782;SDS011;12071;50.850;4.446;2024-03-08T06:50:44;42.08;;;25.17;;
23782;SDS011;12071;50.850;4.446;2024-03-08T06:53:12;43.85;;;25.83;;
23782;SDS011;12071;50.850;4.446;2024-03-08T06:55:38;41.15;;;25.35;;
23782;SDS011;12071;50.850;4.446;2024-03-08T06:58:07;42.90;;;24.77;;
23782;SDS011;12071;50.850;4.446;2024-03-08T07:00:33;40.22;;;24.67;;
23782;SDS011;12071;50.850;4.446;2024-03-08T07:02:59;36.78;;;23.73;;
23782;SDS011;12071;50.850;4.446;2024-03-08T07:05:30;39.42;;;24.08;;
23782;SDS011;12071;50.850;4.446;2024-03-08T07:07:57;39.45;;;24.17;;
23782;SDS011;12071;50.850;4.446;2024-03-08T07:10:24;39.28;;;24.92;;
23782;SDS011;12071;50.850;4.446;2024-03-08T07:12:51;39.13;;;24.58;;
23782;SDS011;12071;50.850;4.446;2024-03-08T07:15:18;36.55;;;23.15;;
23782;SDS011;12071;50.850;4.446;2024-03-08T07:17:47;37.17;;;23.38;;
23782;SDS011;12071;50.850;4.446;2024-03-08T07:20:13;38.22;;;24.02;;
23782;SDS011;12071;50.850;4.446;2024-03-08T07:22:41;38.83;;;24.17;;
23782;SDS011;12071;50.850;4.446;2024-03-08T07:25:06;41.03;;;24.48;;
23782;SDS011;12071;50.850;4.446;2024-03-08T07:27:50;38.15;;;23.33;;
23782;SDS011;12071;50.850;4.446;2024-03-08T07:30:23;38.13;;;22.80;;
23782;SDS011;12071;50.850;4.446;2024-03-08T07:33:08;37.67;;;23.50;;
23782;SDS011;12071;50.850;4.446;2024-03-08T07:35:40;35.47;;;22.23;;
23782;SDS011;12071;50.850;4.446;2024-03-08T07:38:07;41.70;;;23.52;;
23782;SDS011;12071;50.850;4.446;2024-03-08T07:40:37;37.05;;;24.15;;
23782;SDS011;12071;50.850;4.446;2024-03-08T07:43:06;38.33;;;22.63;;
23782;SDS011;12071;50.850;4.446;2024-03-08T07:45:32;40.40;;;24.98;;
23782;SDS011;12071;50.850;4.446;2024-03-08T07:47:58;39.47;;;24.33;;
23782;SDS011;12071;50.850;4.446;2024-03-08T07:50:24;37.17;;;23.02;;
23782;SDS011;12071;50.850;4.446;2024-03-08T07:52:49;36.05;;;22.30;;
23782;SDS011;12071;50.850;4.446;2024-03-08T07:55:16;36.63;;;23.80;;
23782;SDS011;12071;50.850;4.446;2024-03-08T07:57:41;34.30;;;21.92;;
23782;SDS011;12071;50.850;4.446;2024-03-08T08:00:10;35.42;;;22.30;;
23782;SDS011;12071;50.850;4.446;2024-03-08T08:02:42;36.95;;;22.02;;
23782;SDS011;12071;50.850;4.446;2024-03-08T08:05:10;35.88;;;23.45;;
23782;SDS011;12071;50.850;4.446;2024-03-08T08:07:36;35.47;;;21.33;;
23782;SDS011;12071;50.850;4.446;2024-03-08T08:10:02;37.65;;;22.38;;
23782;SDS011;12071;50.850;4.446;2024-03-08T08:12:27;35.05;;;20.75;;
23782;SDS011;12071;50.850;4.446;2024-03-08T08:14:54;32.38;;;20.33;;
23782;SDS011;12071;50.850;4.446;2024-03-08T08:17:20;40.60;;;21.38;;
23782;SDS011;12071;50.850;4.446;2024-03-08T08:19:45;33.63;;;21.63;;
23782;SDS011;12071;50.850;4.446;2024-03-08T08:22:11;35.83;;;21.75;;
23782;SDS011;12071;50.850;4.446;2024-03-08T08:24:37;37.38;;;21.05;;
23782;SDS011;12071;50.850;4.446;2024-03-08T08:27:03;33.70;;;20.67;;
23782;SDS011;12071;50.850;4.446;2024-03-08T08:29:29;35.97;;;20.30;;
23782;SDS011;12071;50.850;4.446;2024-03-08T08:31:57;34.03;;;19.60;;
23782;SDS011;12071;50.850;4.446;2024-03-08T08:34:24;35.00;;;20.15;;
23782;SDS011;12071;50.850;4.446;2024-03-08T08:36:51;32.50;;;19.52;;
23782;SDS011;12071;50.850;4.446;2024-03-08T08:39:19;37.90;;;20.92;;
23782;SDS011;12071;50.850;4.446;2024-03-08T08:41:44;35.78;;;20.50;;
23782;SDS011;12071;50.850;4.446;2024-03-08T08:44:10;33.65;;;20.73;;
23782;SDS011;12071;50.850;4.446;2024-03-08T08:46:37;32.95;;;20.38;;
23782;SDS011;12071;50.850;4.446;2024-03-08T08:49:04;36.13;;;20.63;;
23782;SDS011;12071;50.850;4.446;2024-03-08T08:51:31;34.40;;;20.27;;
23782;SDS011;12071;50.850;4.446;2024-03-08T08:53:58;32.85;;;20.20;;
23782;SDS011;12071;50.850;4.446;2024-03-08T08:56:24;33.30;;;20.45;;
23782;SDS011;12071;50.850;4.446;2024-03-08T08:58:51;31.48;;;18.83;;
23782;SDS011;12071;50.850;4.446;2024-03-08T09:01:18;32.28;;;19.67;;
23782;SDS011;12071;50.850;4.446;2024-03-08T09:03:44;32.58;;;19.20;;
23782;SDS011;12071;50.850;4.446;2024-03-08T09:06:12;30.23;;;16.52;;
23782;SDS011;12071;50.850;4.446;2024-03-08T09:08:39;29.80;;;19.02;;
23782;SDS011;12071;50.850;4.446;2024-03-08T09:11:05;35.15;;;19.67;;
23782;SDS011;12071;50.850;4.446;2024-03-08T09:13:31;31.85;;;19.60;;
23782;SDS011;12071;50.850;4.446;2024-03-08T09:15:58;33.05;;;19.13;;
23782;SDS011;12071;50.850;4.446;2024-03-08T09:18:25;28.17;;;18.55;;
23782;SDS011;12071;50.850;4.446;2024-03-08T09:20:51;24.73;;;17.33;;
23782;SDS011;12071;50.850;4.446;2024-03-08T09:23:21;29.65;;;16.98;;
23782;SDS011;12071;50.850;4.446;2024-03-08T09:25:46;28.60;;;17.95;;
23782;SDS011;12071;50.850;4.446;2024-03-08T09:28:12;31.58;;;17.75;;
23782;SDS011;12071;50.850;4.446;2024-03-08T09:30:39;28.67;;;18.52;;
23782;SDS011;12071;50.850;4.446;2024-03-08T09:33:05;26.58;;;18.75;;
23782;SDS011;12071;50.850;4.446;2024-03-08T09:35:31;29.33;;;18.27;;
23782;SDS011;12071;50.850;4.446;2024-03-08T09:37:57;29.42;;;18.38;;
23782;SDS011;12071;50.850;4.446;2024-03-08T09:40:23;27.73;;;16.95;;
23782;SDS011;12071;50.850;4.446;2024-03-08T09:42:50;26.77;;;17.50;;
23782;SDS011;12071;50.850;4.446;2024-03-08T09:45:17;28.42;;;17.10;;
23782;SDS011;12071;50.850;4.446;2024-03-08T09:47:47;25.88;;;16.42;;
23782;SDS011;12071;50.850;4.446;2024-03-08T09:50:14;27.52;;;16.63;;
23782;SDS011;12071;50.850;4.446;2024-03-08T09:52:42;27.40;;;17.90;;
23782;SDS011;12071;50.850;4.446;2024-03-08T09:55:11;27.63;;;17.75;;
23782;SDS011;12071;50.850;4.446;2024-03-08T09:57:37;25.60;;;16.95;;
23782;SDS011;12071;50.850;4.446;2024-03-08T10:00:05;24.90;;;16.92;;
23782;SDS011;12071;50.850;4.446;2024-03-08T10:02:46;28.05;;;18.55;;
23782;SDS011;12071;50.850;4.446;2024-03-08T10:05:13;26.17;;;17.70;;
23782;SDS011;12071;50.850;4.446;2024-03-08T10:07:40;29.52;;;17.33;;
23782;SDS011;12071;50.850;4.446;2024-03-08T10:10:06;25.38;;;16.00;;
23782;SDS011;12071;50.850;4.446;2024-03-08T10:12:34;24.95;;;16.70;;
23782;SDS011;12071;50.850;4.446;2024-03-08T10:15:00;25.02;;;17.45;;
23782;SDS011;12071;50.850;4.446;2024-03-08T10:17:26;26.00;;;16.65;;
23782;SDS011;12071;50.850;4.446;2024-03-08T10:19:57;25.40;;;15.82;;
23782;SDS011;12071;50.850;4.446;2024-03-08T10:22:25;26.27;;;16.48;;
23782;SDS011;12071;50.850;4.446;2024-03-08T10:24:51;25.20;;;16.38;;
23782;SDS011;12071;50.850;4.446;2024-03-08T10:27:17;25.88;;;16.42;;
23782;SDS011;12071;50.850;4.446;2024-03-08T10:29:46;27.00;;;16.17;;
23782;SDS011;12071;50.850;4.446;2024-03-08T10:32:16;25.27;;;16.02;;
23782;SDS011;12071;50.850;4.446;2024-03-08T10:34:42;22.75;;;13.68;;
23782;SDS011;12071;50.850;4.446;2024-03-08T10:37:12;25.67;;;16.45;;
23782;SDS011;12071;50.850;4.446;2024-03-08T10:39:44;25.13;;;16.30;;
23782;SDS011;12071;50.850;4.446;2024-03-08T10:42:16;25.17;;;15.45;;
23782;SDS011;12071;50.850;4.446;2024-03-08T10:44:57;23.88;;;14.02;;
23782;SDS011;12071;50.850;4.446;2024-03-08T10:47:33;23.75;;;15.57;;
23782;SDS011;12071;50.850;4.446;2024-03-08T10:52:54;25.83;;;15.95;;
23782;SDS011;12071;50.850;4.446;2024-03-08T10:55:22;22.35;;;13.82;;
23782;SDS011;12071;50.850;4.446;2024-03-08T10:57:51;26.33;;;15.32;;
23782;SDS011;12071;50.850;4.446;2024-03-08T11:00:18;20.90;;;14.85;;
23782;SDS011;12071;50.850;4.446;2024-03-08T11:02:51;23.55;;;15.82;;
23782;SDS011;12071;50.850;4.446;2024-03-08T11:05:40;23.25;;;15.70;;
23782;SDS011;12071;50.850;4.446;2024-03-08T11:08:18;22.60;;;15.85;;
23782;SDS011;12071;50.850;4.446;2024-03-08T11:10:48;26.10;;;15.52;;
23782;SDS011;12071;50.850;4.446;2024-03-08T11:13:34;22.45;;;15.55;;
23782;SDS011;12071;50.850;4.446;2024-03-08T11:16:11;23.70;;;15.82;;
23782;SDS011;12071;50.850;4.446;2024-03-08T11:18:59;23.83;;;15.07;;
23782;SDS011;12071;50.850;4.446;2024-03-08T11:21:29;24.63;;;15.25;;
23782;SDS011;12071;50.850;4.446;2024-03-08T11:23:59;25.92;;;16.08;;
23782;SDS011;12071;50.850;4.446;2024-03-08T11:26:32;21.60;;;14.90;;
23782;SDS011;12071;50.850;4.446;2024-03-08T11:34:48;21.88;;;14.68;;
23782;SDS011;12071;50.850;4.446;2024-03-08T11:37:17;24.10;;;16.02;;
23782;SDS011;12071;50.850;4.446;2024-03-08T11:39:47;24.23;;;15.48;;
23782;SDS011;12071;50.850;4.446;2024-03-08T11:42:17;30.45;;;16.40;;
23782;SDS011;12071;50.850;4.446;2024-03-08T11:44:44;21.88;;;15.00;;
23782;SDS011;12071;50.850;4.446;2024-03-08T11:47:11;26.75;;;15.68;;
23782;SDS011;12071;50.850;4.446;2024-03-08T11:49:37;21.75;;;15.70;;
23782;SDS011;12071;50.850;4.446;2024-03-08T11:52:04;22.02;;;15.20;;
23782;SDS011;12071;50.850;4.446;2024-03-08T11:54:30;24.05;;;15.18;;
23782;SDS011;12071;50.850;4.446;2024-03-08T11:56:56;22.55;;;15.40;;
23782;SDS011;12071;50.850;4.446;2024-03-08T11:59:28;23.25;;;14.38;;
23782;SDS011;12071;50.850;4.446;2024-03-08T12:02:13;23.92;;;14.43;;
23782;SDS011;12071;50.850;4.446;2024-03-08T12:04:40;22.80;;;16.05;;
23782;SDS011;12071;50.850;4.446;2024-03-08T12:07:09;25.27;;;15.32;;
23782;SDS011;12071;50.850;4.446;2024-03-08T12:09:37;22.48;;;15.35;;
23782;SDS011;12071;50.850;4.446;2024-03-08T12:12:03;22.88;;;14.30;;
23782;SDS011;12071;50.850;4.446;2024-03-08T12:14:32;25.55;;;14.88;;
23782;SDS011;12071;50.850;4.446;2024-03-08T12:16:59;24.70;;;14.27;;
23782;SDS011;12071;50.850;4.446;2024-03-08T12:19:27;19.73;;;14.65;;
23782;SDS011;12071;50.850;4.446;2024-03-08T12:21:54;20.98;;;14.82;;
23782;SDS011;12071;50.850;4.446;2024-03-08T12:24:20;23.15;;;15.32;;
23782;SDS011;12071;50.850;4.446;2024-03-08T12:26:47;25.00;;;14.65;;
23782;SDS011;12071;50.850;4.446;2024-03-08T12:29:17;23.15;;;14.85;;
23782;SDS011;12071;50.850;4.446;2024-03-08T12:31:52;22.60;;;14.30;;
23782;SDS011;12071;50.850;4.446;2024-03-08T12:34:19;22.83;;;14.63;;
23782;SDS011;12071;50.850;4.446;2024-03-08T12:36:45;19.02;;;13.75;;
23782;SDS011;12071;50.850;4.446;2024-03-08T12:39:17;21.83;;;13.60;;
23782;SDS011;12071;50.850;4.446;2024-03-08T12:41:48;22.27;;;14.53;;
23782;SDS011;12071;50.850;4.446;2024-03-08T12:44:16;22.63;;;14.60;;
23782;SDS011;12071;50.850;4.446;2024-03-08T12:46:44;19.92;;;14.60;;
23782;SDS011;12071;50.850;4.446;2024-03-08T12:49:10;20.42;;;14.98;;
23782;SDS011;12071;50.850;4.446;2024-03-08T12:51:37;23.27;;;14.57;;
23782;SDS011;12071;50.850;4.446;2024-03-08T12:54:06;20.33;;;13.93;;
23782;SDS011;12071;50.850;4.446;2024-03-08T12:56:33;22.75;;;14.55;;
23782;SDS011;12071;50.850;4.446;2024-03-08T12:59:05;19.58;;;14.07;;
23782;SDS011;12071;50.850;4.446;2024-03-08T13:01:38;20.80;;;14.40;;
23782;SDS011;12071;50.850;4.446;2024-03-08T13:04:04;22.05;;;14.27;;
23782;SDS011;12071;50.850;4.446;2024-03-08T13:06:31;19.88;;;14.07;;
23782;SDS011;12071;50.850;4.446;2024-03-08T13:08:59;22.27;;;14.50;;
23782;SDS011;12071;50.850;4.446;2024-03-08T13:11:30;21.85;;;14.18;;
23782;SDS011;12071;50.850;4.446;2024-03-08T13:13:59;20.88;;;13.40;;
23782;SDS011;12071;50.850;4.446;2024-03-08T13:16:25;23.33;;;14.45;;
23782;SDS011;12071;50.850;4.446;2024-03-08T13:18:54;20.17;;;13.50;;
23782;SDS011;12071;50.850;4.446;2024-03-08T13:21:22;20.33;;;13.38;;
23782;SDS011;12071;50.850;4.446;2024-03-08T13:23:49;20.17;;;13.68;;
23782;SDS011;12071;50.850;4.446;2024-03-08T13:26:15;21.92;;;14.05;;
23782;SDS011;12071;50.850;4.446;2024-03-08T13:28:42;22.33;;;13.18;;
23782;SDS011;12071;50.850;4.446;2024-03-08T13:31:10;20.65;;;13.57;;
23782;SDS011;12071;50.850;4.446;2024-03-08T13:33:36;19.27;;;13.40;;
23782;SDS011;12071;50.850;4.446;2024-03-08T13:36:05;23.70;;;14.20;;
23782;SDS011;12071;50.850;4.446;2024-03-08T13:38:39;23.20;;;14.50;;
23782;SDS011;12071;50.850;4.446;2024-03-08T13:41:09;19.45;;;13.68;;
23782;SDS011;12071;50.850;4.446;2024-03-08T13:43:46;21.90;;;14.30;;
23782;SDS011;12071;50.850;4.446;2024-03-08T13:46:15;22.83;;;13.23;;
23782;SDS011;12071;50.850;4.446;2024-03-08T13:48:42;21.30;;;13.80;;
23782;SDS011;12071;50.850;4.446;2024-03-08T13:51:08;20.25;;;13.98;;
23782;SDS011;12071;50.850;4.446;2024-03-08T13:53:40;22.50;;;13.60;;
23782;SDS011;12071;50.850;4.446;2024-03-08T13:56:06;19.63;;;12.88;;
23782;SDS011;12071;50.850;4.446;2024-03-08T13:58:35;21.52;;;13.40;;
23782;SDS011;12071;50.850;4.446;2024-03-08T14:01:01;18.17;;;12.77;;
23782;SDS011;12071;50.850;4.446;2024-03-08T14:03:28;18.85;;;13.02;;
23782;SDS011;12071;50.850;4.446;2024-03-08T14:05:54;17.95;;;12.35;;
23782;SDS011;12071;50.850;4.446;2024-03-08T14:08:21;19.20;;;13.55;;
23782;SDS011;12071;50.850;4.446;2024-03-08T14:10:47;19.27;;;12.95;;
23782;SDS011;12071;50.850;4.446;2024-03-08T14:13:15;16.80;;;12.68;;
23782;SDS011;12071;50.850;4.446;2024-03-08T14:15:44;25.13;;;13.77;;
23782;SDS011;12071;50.850;4.446;2024-03-08T14:18:11;21.55;;;14.30;;
23782;SDS011;12071;50.850;4.446;2024-03-08T14:20:38;18.58;;;14.60;;
23782;SDS011;12071;50.850;4.446;2024-03-08T14:23:04;19.02;;;13.18;;
23782;SDS011;12071;50.850;4.446;2024-03-08T14:25:33;16.90;;;13.13;;
23782;SDS011;12071;50.850;4.446;2024-03-08T14:27:58;18.30;;;14.23;;
23782;SDS011;12071;50.850;4.446;2024-03-08T14:30:29;18.15;;;14.48;;
23782;SDS011;12071;50.850;4.446;2024-03-08T14:33:03;22.35;;;14.55;;